Time;durP1;ratioP1;P1;durP2;ratioP2;P2;SDS_P1;SDS_P2;PMS_P1;PMS_P2;Temp;Humidity;BMP_temperature;BMP_pressure;BME280_temperature;BME280_humidity;BME280_pressure;Samples;Min_cycle;Max_cycle;Signal;HPM_P1;HPM_P2
2023/07/02 00:01:30;;;;;;;;;;;15.80;99.90;;;;;;4827146;29;20018;-92
2023/07/02 00:03:56;;;;;;;;;;;15.80;99.90;;;;;;4827950;24;20366;-92
2023/07/02 00:06:21;;;;;;;;;;;15.80;99.90;;;;;;4820032;29;19929;-92
2023/07/02 00:08:47;;;;;;;;;;;15.70;99.90;;;;;;4805610;29;19921;-93
2023/07/02 00:11:16;;;;;;;;;;;15.70;99.90;;;;;;4820305;29;19924;-92
2023/07/02 00:13:41;;;;;;;;;;;15.70;99.90;;;;;;4821220;29;19921;-93
2023/07/02 00:16:07;;;;;;;;;;;15.70;99.90;;;;;;4813153;29;19925;-92
2023/07/02 00:18:33;;;;;;;;;;;15.70;99.90;;;;;;4835616;29;20319;-92
2023/07/02 00:21:02;;;;;;;;;;;15.70;99.90;;;;;;4802196;29;19929;-92
2023/07/02 00:23:28;;;;;;;;;;;15.60;99.90;;;;;;4802284;29;19925;-93
2023/07/02 00:25:54;;;;;;;;;;;15.60;99.90;;;;;;4813277;29;20023;-92
2023/07/02 00:28:20;;;;;;;;;;;15.60;99.90;;;;;;4802830;29;20346;-93
2023/07/02 00:30:45;;;;;;;;;;;15.50;99.90;;;;;;4790161;29;20297;-92
2023/07/02 00:33:11;;;;;;;;;;;15.50;99.90;;;;;;4806024;29;20506;-92
2023/07/02 00:35:37;;;;;;;;;;;15.40;99.90;;;;;;4820026;29;20282;-92
2023/07/02 00:38:03;;;;;;;;;;;15.40;99.90;;;;;;4819762;29;19924;-93
2023/07/02 00:40:37;;;;;;;;;;;15.30;99.90;;;;;;4819629;29;19931;-93
2023/07/02 00:43:03;;;;;;;;;;;15.30;99.90;;;;;;4805108;29;19929;-92
2023/07/02 00:45:29;;;;;;;;;;;15.30;99.90;;;;;;4819756;29;19932;-92
2023/07/02 00:47:55;;;;;;;;;;;15.30;99.90;;;;;;4805154;29;19996;-92
2023/07/02 00:50:22;;;;;;;;;;;15.30;99.90;;;;;;4812448;29;20019;-91
2023/07/02 00:52:53;;;;;;;;;;;15.20;99.90;;;;;;4788107;29;19935;-91
2023/07/02 00:55:20;;;;;;;;;;;15.20;99.90;;;;;;4792615;29;19936;-92
2023/07/02 00:57:46;;;;;;;;;;;15.10;99.90;;;;;;4801892;29;19980;-92
2023/07/02 01:00:13;;;;;;;;;;;15.10;99.90;;;;;;4792802;29;19924;-91
2023/07/02 01:02:42;;;;;;;;;;;15.10;99.90;;;;;;4789671;29;19928;-91
2023/07/02 01:05:09;;;;;;;;;;;15.10;99.90;;;;;;4790416;29;20374;-91
2023/07/02 01:07:34;;;;;;;;;;;15.10;99.90;;;;;;4804423;29;19925;-91
2023/07/02 01:10:00;;;;;;;;;;;15.10;99.90;;;;;;4805264;29;19947;-92
2023/07/02 01:12:26;;;;;;;;;;;15.00;99.90;;;;;;4789531;29;20400;-92
2023/07/02 01:14:53;;;;;;;;;;;15.00;99.90;;;;;;4804121;29;19932;-92
2023/07/02 01:17:19;;;;;;;;;;;15.00;99.90;;;;;;4789898;29;19933;-91
2023/07/02 01:19:52;;;;;;;;;;;15.00;99.90;;;;;;4803494;29;20400;-91
2023/07/02 01:22:20;;;;;;;;;;;15.00;99.90;;;;;;4805408;29;19975;-91
2023/07/02 01:24:47;;;;;;;;;;;15.00;99.90;;;;;;4803791;29;20012;-91
2023/07/02 01:27:14;;;;;;;;;;;15.00;99.90;;;;;;4797819;29;19924;-90
2023/07/02 01:29:40;;;;;;;;;;;15.00;99.90;;;;;;4781022;29;19936;-91
2023/07/02 01:32:08;;;;;;;;;;;14.90;99.90;;;;;;4789580;29;19924;-91
2023/07/02 01:34:34;;;;;;;;;;;14.90;99.90;;;;;;4796479;29;19928;-90
2023/07/02 01:37:00;;;;;;;;;;;14.90;99.90;;;;;;4790025;29;20429;-92
2023/07/02 01:39:26;;;;;;;;;;;14.80;99.90;;;;;;4789179;29;20393;-91
2023/07/02 01:41:53;;;;;;;;;;;15.00;99.90;;;;;;4788773;29;19932;-90
2023/07/02 01:44:23;;;;;;;;;;;14.90;99.90;;;;;;4789057;29;20390;-92
2023/07/02 01:46:49;;;;;;;;;;;14.90;99.90;;;;;;4788832;29;19930;-91
2023/07/02 01:49:15;;;;;;;;;;;14.90;99.90;;;;;;4789379;29;19929;-91
2023/07/02 01:51:44;;;;;;;;;;;14.90;99.90;;;;;;4788752;29;19937;-90
2023/07/02 01:54:09;;;;;;;;;;;14.90;99.90;;;;;;4804796;29;19971;-92
2023/07/02 01:56:35;;;;;;;;;;;14.80;99.90;;;;;;4788629;29;19971;-91
2023/07/02 01:59:01;;;;;;;;;;;14.80;99.90;;;;;;4777995;29;19980;-91
2023/07/02 02:01:27;;;;;;;;;;;14.80;99.90;;;;;;4789057;29;19924;-91
2023/07/02 02:03:53;;;;;;;;;;;14.80;99.90;;;;;;4791483;29;20405;-91
2023/07/02 02:06:18;;;;;;;;;;;14.80;99.90;;;;;;4805899;29;20166;-91
2023/07/02 02:08:44;;;;;;;;;;;14.80;99.90;;;;;;4789209;29;20027;-91
2023/07/02 02:11:16;;;;;;;;;;;14.70;99.90;;;;;;4805911;29;20377;-91
2023/07/02 02:13:41;;;;;;;;;;;14.60;99.90;;;;;;4803445;29;19960;-91
2023/07/02 02:16:11;;;;;;;;;;;14.60;99.90;;;;;;4790054;29;20397;-91
2023/07/02 02:18:37;;;;;;;;;;;14.60;99.90;;;;;;4806244;29;19924;-92
2023/07/02 02:21:03;;;;;;;;;;;14.50;99.90;;;;;;4813665;29;19925;-92
2023/07/02 02:23:28;;;;;;;;;;;14.50;99.90;;;;;;4805341;29;19935;-91
2023/07/02 02:25:54;;;;;;;;;;;14.40;99.90;;;;;;4805538;29;20366;-90
2023/07/02 02:28:19;;;;;;;;;;;14.40;99.90;;;;;;4788719;29;19929;-91
2023/07/02 02:30:45;;;;;;;;;;;14.30;99.90;;;;;;4790649;29;20304;-91
2023/07/02 02:33:11;;;;;;;;;;;14.30;99.90;;;;;;4806511;29;19967;-92
2023/07/02 02:35:36;;;;;;;;;;;14.20;99.90;;;;;;4806160;29;20298;-91
2023/07/02 02:38:03;;;;;;;;;;;14.20;99.90;;;;;;4807626;29;19948;-91
2023/07/02 02:40:38;;;;;;;;;;;14.20;99.90;;;;;;4803016;29;19928;-92
2023/07/02 02:43:03;;;;;;;;;;;14.20;99.90;;;;;;4804780;29;19943;-91
2023/07/02 02:45:29;;;;;;;;;;;14.20;99.90;;;;;;4821061;29;20855;-92
2023/07/02 02:47:54;;;;;;;;;;;14.10;99.90;;;;;;4807949;29;20380;-90
2023/07/02 02:50:20;;;;;;;;;;;14.10;99.90;;;;;;4820267;29;19977;-91
2023/07/02 02:52:46;;;;;;;;;;;14.10;99.90;;;;;;4806394;29;20370;-90
2023/07/02 02:55:12;;;;;;;;;;;14.10;99.90;;;;;;4791019;29;19924;-91
2023/07/02 02:57:37;;;;;;;;;;;14.10;99.90;;;;;;4801584;29;19925;-91
2023/07/02 03:00:04;;;;;;;;;;;14.00;99.90;;;;;;4791609;29;19925;-91
2023/07/02 03:02:30;;;;;;;;;;;14.00;99.90;;;;;;4805761;29;19936;-91
2023/07/02 03:04:56;;;;;;;;;;;14.00;99.90;;;;;;4770194;29;1126925;-91
2023/07/02 03:07:22;;;;;;;;;;;14.00;99.90;;;;;;4805739;29;20048;-90
2023/07/02 03:09:48;;;;;;;;;;;14.00;99.90;;;;;;4820214;29;19956;-91
2023/07/02 03:12:13;;;;;;;;;;;14.00;99.90;;;;;;4817050;29;19924;-89
2023/07/02 03:14:39;;;;;;;;;;;14.00;99.90;;;;;;4820356;29;19933;-90
2023/07/02 03:17:04;;;;;;;;;;;14.00;99.90;;;;;;4806879;29;19956;-92
2023/07/02 03:19:30;;;;;;;;;;;14.00;99.90;;;;;;4805592;29;19928;-91
2023/07/02 03:21:56;;;;;;;;;;;14.00;99.90;;;;;;4808564;29;19929;-91
2023/07/02 03:24:21;;;;;;;;;;;14.00;99.90;;;;;;4820297;29;19929;-91
2023/07/02 03:26:47;;;;;;;;;;;13.90;99.90;;;;;;4806830;29;19928;-91
2023/07/02 03:29:12;;;;;;;;;;;13.90;99.90;;;;;;4799279;29;20280;-91
2023/07/02 03:31:38;;;;;;;;;;;13.90;99.90;;;;;;4820476;29;19936;-91
2023/07/02 03:34:05;;;;;;;;;;;13.90;99.90;;;;;;4806371;29;20322;-91
2023/07/02 03:36:31;;;;;;;;;;;13.90;99.90;;;;;;4819825;29;19928;-91
2023/07/02 03:38:57;;;;;;;;;;;13.50;99.90;;;;;;4813415;29;19935;-92
2023/07/02 03:41:23;;;;;;;;;;;13.90;99.90;;;;;;4801440;29;19933;-91
2023/07/02 03:43:48;;;;;;;;;;;13.90;99.90;;;;;;4783932;29;20015;-91
2023/07/02 03:46:14;;;;;;;;;;;13.90;99.90;;;;;;4820463;29;19978;-91
2023/07/02 03:48:40;;;;;;;;;;;14.00;99.90;;;;;;4820478;29;19980;-90
2023/07/02 03:51:06;;;;;;;;;;;13.90;99.90;;;;;;4805743;29;19924;-92
2023/07/02 03:53:31;;;;;;;;;;;14.00;99.90;;;;;;4821599;29;19944;-92
2023/07/02 03:55:57;;;;;;;;;;;14.00;99.90;;;;;;4795262;29;20648;-91
2023/07/02 03:58:22;;;;;;;;;;;14.10;99.90;;;;;;4813458;29;19929;-91
2023/07/02 04:00:49;;;;;;;;;;;14.10;99.90;;;;;;4804803;29;19924;-91
2023/07/02 04:03:16;;;;;;;;;;;14.10;99.90;;;;;;4820602;29;19935;-91
2023/07/02 04:05:42;;;;;;;;;;;14.10;99.90;;;;;;4821647;29;19929;-91
2023/07/02 04:08:07;;;;;;;;;;;14.20;99.90;;;;;;4805341;29;19941;-91
2023/07/02 04:10:33;;;;;;;;;;;14.20;99.90;;;;;;4804561;29;19951;-90
2023/07/02 04:12:58;;;;;;;;;;;14.20;99.90;;;;;;4820366;29;19971;-90
2023/07/02 04:15:25;;;;;;;;;;;14.20;99.90;;;;;;4818290;29;20463;-91
2023/07/02 04:17:51;;;;;;;;;;;14.30;99.90;;;;;;4798416;29;19931;-91
2023/07/02 04:20:18;;;;;;;;;;;14.30;99.90;;;;;;4819708;29;19988;-91
2023/07/02 04:22:44;;;;;;;;;;;14.40;99.90;;;;;;4820675;29;19964;-90
2023/07/02 04:25:14;;;;;;;;;;;14.40;99.90;;;;;;4820338;29;19924;-90
2023/07/02 04:27:40;;;;;;;;;;;14.50;99.90;;;;;;4820003;29;19940;-91
2023/07/02 04:30:08;;;;;;;;;;;14.50;99.90;;;;;;4819306;29;19925;-91
2023/07/02 04:32:34;;;;;;;;;;;14.50;99.90;;;;;;4799227;29;19929;-90
2023/07/02 04:34:59;;;;;;;;;;;14.60;99.90;;;;;;4805287;29;19936;-90
2023/07/02 04:37:25;;;;;;;;;;;14.50;99.90;;;;;;4819315;29;19928;-91
2023/07/02 04:39:50;;;;;;;;;;;14.60;99.90;;;;;;4805378;29;20242;-90
2023/07/02 04:42:16;;;;;;;;;;;14.70;99.90;;;;;;4819362;29;20008;-91
2023/07/02 04:44:43;;;;;;;;;;;14.70;99.90;;;;;;4804216;29;20442;-91
2023/07/02 04:47:09;;;;;;;;;;;14.70;99.90;;;;;;4820976;29;20266;-90
2023/07/02 04:49:34;;;;;;;;;;;14.70;99.90;;;;;;4819120;29;19925;-91
2023/07/02 04:52:00;;;;;;;;;;;14.70;99.90;;;;;;4811835;29;19991;-92
2023/07/02 04:54:28;;;;;;;;;;;14.60;99.90;;;;;;4817388;29;19921;-91
2023/07/02 04:56:54;;;;;;;;;;;14.60;99.90;;;;;;4801379;29;20413;-90
2023/07/02 04:59:21;;;;;;;;;;;14.70;99.90;;;;;;4818709;29;19968;-91
2023/07/02 05:01:52;;;;;;;;;;;14.70;99.90;;;;;;4801648;29;20004;-90
2023/07/02 05:04:18;;;;;;;;;;;14.50;99.90;;;;;;4805102;29;19925;-91
2023/07/02 05:06:44;;;;;;;;;;;14.80;99.90;;;;;;4803928;29;19989;-91
2023/07/02 05:09:09;;;;;;;;;;;14.90;99.90;;;;;;4807852;29;19933;-91
2023/07/02 05:11:35;;;;;;;;;;;15.00;99.90;;;;;;4818251;29;20442;-90
2023/07/02 05:14:00;;;;;;;;;;;15.10;99.90;;;;;;4819271;29;19925;-91
2023/07/02 05:16:26;;;;;;;;;;;15.20;99.90;;;;;;4818906;29;19955;-91
2023/07/02 05:19:01;;;;;;;;;;;15.40;99.90;;;;;;4815676;29;19921;-91
2023/07/02 05:21:26;;;;;;;;;;;15.60;99.90;;;;;;4804378;29;19940;-91
2023/07/02 05:23:52;;;;;;;;;;;15.80;99.90;;;;;;4801655;29;19925;-91
2023/07/02 05:26:17;;;;;;;;;;;15.90;99.90;;;;;;4813898;29;19921;-91
2023/07/02 05:28:44;;;;;;;;;;;15.90;99.90;;;;;;4789963;29;19973;-90
2023/07/02 05:31:18;;;;;;;;;;;15.90;99.90;;;;;;4798358;29;19947;-92
2023/07/02 05:33:44;;;;;;;;;;;15.90;99.90;;;;;;4801125;29;20336;-93
2023/07/02 05:36:09;;;;;;;;;;;15.90;99.90;;;;;;4796499;29;19983;-92
2023/07/02 05:38:35;;;;;;;;;;;15.90;99.90;;;;;;4796082;29;19932;-90
2023/07/02 05:41:02;;;;;;;;;;;15.90;99.90;;;;;;4801556;29;19932;-91
2023/07/02 05:43:28;;;;;;;;;;;15.90;99.90;;;;;;4807628;29;20016;-90
2023/07/02 05:45:53;;;;;;;;;;;15.90;99.90;;;;;;4821685;29;19931;-90
2023/07/02 05:48:19;;;;;;;;;;;15.90;99.90;;;;;;4797161;29;19932;-91
2023/07/02 05:50:44;;;;;;;;;;;15.90;99.90;;;;;;4806757;29;20041;-90
2023/07/02 05:53:10;;;;;;;;;;;15.90;99.90;;;;;;4823183;29;19931;-91
2023/07/02 05:55:36;;;;;;;;;;;16.00;99.90;;;;;;4821600;29;19929;-91
2023/07/02 05:58:02;;;;;;;;;;;16.20;99.90;;;;;;4822454;29;20372;-90
2023/07/02 06:00:28;;;;;;;;;;;16.30;99.90;;;;;;4802293;29;19929;-91
2023/07/02 06:02:54;;;;;;;;;;;16.40;99.90;;;;;;4821903;29;19931;-91
2023/07/02 06:05:20;;;;;;;;;;;16.50;99.90;;;;;;4822286;29;20027;-91
2023/07/02 06:07:46;;;;;;;;;;;16.70;99.90;;;;;;4797193;29;20392;-90
2023/07/02 06:10:11;;;;;;;;;;;16.70;99.90;;;;;;4806753;29;19925;-90
2023/07/02 06:12:37;;;;;;;;;;;16.80;99.90;;;;;;4796326;29;19929;-90
2023/07/02 06:15:03;;;;;;;;;;;16.80;99.90;;;;;;4821157;29;19925;-89
2023/07/02 06:17:30;;;;;;;;;;;16.80;99.90;;;;;;4796608;29;20011;-91
2023/07/02 06:19:57;;;;;;;;;;;16.80;99.90;;;;;;4806728;29;20384;-90
2023/07/02 06:22:23;;;;;;;;;;;16.80;99.90;;;;;;4821893;29;19925;-90
2023/07/02 06:24:48;;;;;;;;;;;16.90;99.90;;;;;;4821777;29;19928;-89
2023/07/02 06:27:14;;;;;;;;;;;16.90;99.90;;;;;;4820961;29;20335;-89
2023/07/02 06:29:39;;;;;;;;;;;17.00;99.90;;;;;;4817913;29;20305;-90
2023/07/02 06:32:05;;;;;;;;;;;17.00;99.90;;;;;;4819081;29;19924;-90
2023/07/02 06:34:31;;;;;;;;;;;17.30;99.90;;;;;;4819577;29;19920;-89
2023/07/02 06:36:56;;;;;;;;;;;17.20;99.90;;;;;;4804276;29;20312;-89
2023/07/02 06:39:22;;;;;;;;;;;17.30;99.90;;;;;;4819090;29;20011;-91
2023/07/02 06:41:47;;;;;;;;;;;17.30;99.90;;;;;;4803353;29;19981;-89
2023/07/02 06:44:13;;;;;;;;;;;17.50;99.90;;;;;;4818882;29;20073;-89
2023/07/02 06:46:39;;;;;;;;;;;17.50;99.90;;;;;;4792894;29;20240;-89
2023/07/02 06:49:04;;;;;;;;;;;17.50;99.90;;;;;;4817073;29;20036;-89
2023/07/02 06:51:30;;;;;;;;;;;17.40;99.90;;;;;;4803535;29;19936;-90
2023/07/02 06:53:56;;;;;;;;;;;17.30;99.90;;;;;;4818329;29;19964;-90
2023/07/02 06:56:21;;;;;;;;;;;17.10;99.90;;;;;;4803307;29;19929;-89
2023/07/02 06:58:47;;;;;;;;;;;17.00;99.90;;;;;;4806812;29;19991;-90
2023/07/02 07:01:13;;;;;;;;;;;17.10;99.90;;;;;;4804202;29;19929;-90
2023/07/02 07:03:38;;;;;;;;;;;17.20;99.90;;;;;;4803330;29;19985;-89
2023/07/02 07:06:04;;;;;;;;;;;17.40;99.90;;;;;;4802062;29;19978;-89
2023/07/02 07:08:29;;;;;;;;;;;17.50;99.90;;;;;;4804323;29;19933;-91
2023/07/02 07:10:55;;;;;;;;;;;17.60;99.90;;;;;;4802904;29;19928;-91
2023/07/02 07:13:21;;;;;;;;;;;17.60;99.90;;;;;;4819108;29;20011;-90
2023/07/02 07:15:46;;;;;;;;;;;17.70;99.90;;;;;;4803397;29;19935;-92
2023/07/02 07:18:12;;;;;;;;;;;17.80;99.90;;;;;;4786087;29;19929;-95
2023/07/02 07:20:39;;;;;;;;;;;17.80;99.90;;;;;;4792152;29;20066;-92
2023/07/02 07:23:05;;;;;;;;;;;17.70;99.90;;;;;;4829602;29;19978;-94
2023/07/02 07:25:30;;;;;;;;;;;17.70;99.90;;;;;;4803631;29;19935;-92
2023/07/02 07:27:56;;;;;;;;;;;17.80;99.90;;;;;;4797165;29;19925;-91
2023/07/02 07:30:27;;;;;;;;;;;17.90;99.90;;;;;;4834048;29;19984;-91
2023/07/02 07:32:53;;;;;;;;;;;17.90;99.90;;;;;;4800323;29;19925;-90
2023/07/02 07:35:25;;;;;;;;;;;18.00;99.90;;;;;;4806580;29;19954;-89
2023/07/02 07:37:51;;;;;;;;;;;18.00;99.90;;;;;;4819839;29;19929;-90
2023/07/02 07:40:16;;;;;;;;;;;18.10;99.90;;;;;;4797926;29;20258;-89
2023/07/02 07:42:43;;;;;;;;;;;18.20;99.90;;;;;;4819921;29;19925;-89
2023/07/02 07:45:09;;;;;;;;;;;18.20;99.90;;;;;;4819558;29;19925;-89
2023/07/02 07:47:35;;;;;;;;;;;18.10;99.90;;;;;;4819473;29;19933;-88
2023/07/02 07:50:02;;;;;;;;;;;18.20;99.90;;;;;;4804769;29;19928;-87
2023/07/02 07:52:33;;;;;;;;;;;18.20;99.90;;;;;;4819881;29;20330;-90
2023/07/02 07:54:59;;;;;;;;;;;18.30;99.90;;;;;;4828077;29;19925;-89
2023/07/02 07:57:33;;;;;;;;;;;18.40;99.90;;;;;;4820199;29;19925;-89
2023/07/02 07:59:59;;;;;;;;;;;18.50;99.90;;;;;;4820198;29;19925;-88
2023/07/02 08:02:46;;;;;;;;;;;18.50;99.90;;;;;;4804320;29;19924;-91
2023/07/02 08:05:14;;;;;;;;;;;18.60;99.90;;;;;;4818565;29;19929;-90
2023/07/02 08:07:40;;;;;;;;;;;18.70;99.90;;;;;;4804488;29;19977;-89
2023/07/02 08:16:41;;;;;;;;;;;18.60;99.90;;;;;;4921097;23;20027;-96
2023/07/02 08:20:28;;;;;;;;;;;;;;;;;;;;;
2023/07/02 08:22:51;;;;;;;;;;;18.30;99.90;;;;;;4807559;29;19924;-96
2023/07/02 08:25:21;;;;;;;;;;;18.20;99.90;;;;;;4795589;29;19929;-96
2023/07/02 08:28:01;;;;;;;;;;;18.00;99.90;;;;;;4798539;29;19936;-94
2023/07/02 08:30:30;;;;;;;;;;;17.90;99.90;;;;;;4791258;29;20373;-94
2023/07/02 08:33:10;;;;;;;;;;;17.70;99.90;;;;;;4806152;29;19983;-95
2023/07/02 08:36:03;;;;;;;;;;;;;;;;;;;;;
2023/07/02 08:38:29;;;;;;;;;;;17.50;99.90;;;;;;4792993;29;19929;-94
2023/07/02 08:41:11;;;;;;;;;;;17.20;99.90;;;;;;4792170;29;19932;-94
2023/07/02 08:43:37;;;;;;;;;;;17.60;99.90;;;;;;4798119;29;19925;-94
2023/07/02 08:46:03;;;;;;;;;;;17.00;99.90;;;;;;4805326;29;20288;-93
2023/07/02 08:48:29;;;;;;;;;;;16.90;99.90;;;;;;4808402;29;19924;-93
2023/07/02 08:50:55;;;;;;;;;;;17.00;99.90;;;;;;4802135;29;20076;-94
2023/07/02 08:53:25;;;;;;;;;;;17.20;99.90;;;;;;4803418;29;20333;-94
2023/07/02 08:55:51;;;;;;;;;;;17.50;99.90;;;;;;4800445;29;19965;-93
2023/07/02 08:58:16;;;;;;;;;;;17.90;99.90;;;;;;4776194;29;19967;-93
2023/07/02 09:01:02;;;;;;;;;;;18.20;99.90;;;;;;4790073;29;19967;-95
2023/07/02 09:03:28;;;;;;;;;;;18.60;99.90;;;;;;4799426;29;20366;-95
2023/07/02 09:05:54;;;;;;;;;;;18.90;99.90;;;;;;4797719;29;20015;-94
2023/07/02 09:08:24;;;;;;;;;;;19.00;99.90;;;;;;4783829;29;20334;-94
2023/07/02 09:10:53;;;;;;;;;;;19.20;99.90;;;;;;4800389;29;19937;-96
2023/07/02 09:13:21;;;;;;;;;;;19.00;99.90;;;;;;4804882;29;19931;-96
2023/07/02 09:15:50;;;;;;;;;;;19.00;99.90;;;;;;4798218;29;19985;-93
2023/07/02 09:18:28;;;;;;;;;;;19.30;99.90;;;;;;4802798;29;19931;-96
2023/07/02 09:20:56;;;;;;;;;;;19.10;99.90;;;;;;4793542;29;19924;-96
2023/07/02 09:23:22;;;;;;;;;;;19.10;99.90;;;;;;4796818;29;19974;-96
2023/07/02 09:25:47;;;;;;;;;;;19.10;99.90;;;;;;4802333;29;20697;-96
2023/07/02 09:28:14;;;;;;;;;;;18.80;99.90;;;;;;4808668;29;19951;-96
2023/07/02 09:30:49;;;;;;;;;;;18.60;99.90;;;;;;4802668;29;20461;-96
2023/07/02 09:33:18;;;;;;;;;;;18.40;99.90;;;;;;4812719;29;19924;-96
2023/07/02 09:35:44;;;;;;;;;;;18.10;99.90;;;;;;4812534;29;19920;-96
2023/07/02 09:38:10;;;;;;;;;;;18.30;99.90;;;;;;4811235;29;19928;-96
2023/07/02 09:40:43;;;;;;;;;;;18.30;99.90;;;;;;4807954;29;20330;-96
2023/07/02 09:43:11;;;;;;;;;;;18.30;99.90;;;;;;4805893;29;19931;-96
2023/07/02 09:45:38;;;;;;;;;;;18.30;99.90;;;;;;4805314;29;20045;-96
2023/07/02 09:48:05;;;;;;;;;;;18.30;99.90;;;;;;4793747;29;20015;-95
2023/07/02 09:50:31;;;;;;;;;;;18.40;99.90;;;;;;4790630;29;20002;-96
2023/07/02 09:52:57;;;;;;;;;;;18.70;99.90;;;;;;4799958;29;20148;-96
2023/07/02 09:55:23;;;;;;;;;;;18.90;99.90;;;;;;4798591;29;20015;-96
2023/07/02 09:57:51;;;;;;;;;;;19.10;99.90;;;;;;4810730;29;20104;-95
2023/07/02 10:00:16;;;;;;;;;;;19.00;99.90;;;;;;4811070;29;20400;-96
2023/07/02 10:02:47;;;;;;;;;;;18.60;99.90;;;;;;4794034;29;19929;-96
2023/07/02 10:05:24;;;;;;;;;;;18.90;99.90;;;;;;4806994;29;19932;-96
2023/07/02 10:07:53;;;;;;;;;;;19.00;99.90;;;;;;4802354;29;20297;-95
2023/07/02 10:10:28;;;;;;;;;;;19.40;99.90;;;;;;4795660;29;20019;-96
2023/07/02 10:12:53;;;;;;;;;;;19.50;99.90;;;;;;4801582;29;20297;-96
2023/07/02 10:15:27;;;;;;;;;;;19.30;99.90;;;;;;4803495;29;20007;-96
2023/07/02 10:17:55;;;;;;;;;;;19.10;99.90;;;;;;4804261;29;19964;-95
2023/07/02 10:20:30;;;;;;;;;;;18.90;99.90;;;;;;4805133;29;19981;-96
2023/07/02 10:23:01;;;;;;;;;;;18.80;99.90;;;;;;4807285;29;19969;-96
2023/07/02 10:25:29;;;;;;;;;;;18.80;99.90;;;;;;4782618;29;20522;-95
2023/07/02 10:27:55;;;;;;;;;;;18.80;99.90;;;;;;4792300;29;19929;-96
2023/07/02 10:30:37;;;;;;;;;;;19.00;99.90;;;;;;4799754;29;19928;-95
2023/07/02 10:33:10;;;;;;;;;;;18.90;99.90;;;;;;4799310;29;19924;-96
2023/07/02 10:35:42;;;;;;;;;;;19.10;99.90;;;;;;4810223;29;19924;-95
2023/07/02 10:38:14;;;;;;;;;;;19.40;99.90;;;;;;4806213;29;20386;-96
2023/07/02 10:40:44;;;;;;;;;;;19.20;99.90;;;;;;4799785;29;20389;-95
2023/07/02 10:43:12;;;;;;;;;;;19.40;99.90;;;;;;4795071;29;19973;-96
2023/07/02 10:45:41;;;;;;;;;;;19.40;99.90;;;;;;4797698;29;20254;-96
2023/07/02 10:48:15;;;;;;;;;;;19.60;99.90;;;;;;4787196;29;19932;-95
2023/07/02 10:50:58;;;;;;;;;;;19.70;99.90;;;;;;4807244;29;19981;-95
2023/07/02 10:54:17;;;;;;;;;;;19.90;99.90;;;;;;4806624;29;19925;-96
2023/07/02 10:56:18;;;;;;;;;;;20.30;99.90;;;;;;4814606;29;19933;-96
2023/07/02 10:59:01;;;;;;;;;;;20.40;99.90;;;;;;4821672;29;19924;-95
2023/07/02 11:01:41;;;;;;;;;;;20.60;99.90;;;;;;4798072;29;19932;-96
2023/07/02 11:04:10;;;;;;;;;;;20.70;99.90;;;;;;4804827;29;19992;-95
2023/07/02 11:06:38;;;;;;;;;;;20.80;99.90;;;;;;4811370;29;19935;-95
2023/07/02 11:10:04;;;;;;;;;;;20.50;99.90;;;;;;4806356;29;19920;-95
2023/07/02 11:12:13;;;;;;;;;;;20.30;99.90;;;;;;4819630;29;19924;-96
2023/07/02 11:14:42;;;;;;;;;;;19.80;99.90;;;;;;4796769;29;19975;-95
2023/07/02 11:17:15;;;;;;;;;;;19.70;99.90;;;;;;4808993;29;19964;-96
2023/07/02 11:19:43;;;;;;;;;;;20.00;99.90;;;;;;4810195;29;19928;-96
2023/07/02 11:22:34;;;;;;;;;;;;;;;;;;;;;
2023/07/02 11:25:24;;;;;;;;;;;20.10;99.90;;;;;;4809544;29;19928;-96
2023/07/02 11:28:07;;;;;;;;;;;20.10;99.90;;;;;;4798858;29;20429;-96
2023/07/02 11:30:45;;;;;;;;;;;20.00;99.90;;;;;;4799438;29;20020;-96
2023/07/02 11:33:32;;;;;;;;;;;20.00;99.90;;;;;;4780289;29;20009;-95
2023/07/02 11:36:35;;;;;;;;;;;20.10;99.90;;;;;;4789465;29;19928;-96
2023/07/02 11:39:07;;;;;;;;;;;20.50;99.90;;;;;;4820569;29;19934;-94
2023/07/02 11:42:02;;;;;;;;;;;20.70;99.90;;;;;;4799921;29;20271;-96
2023/07/02 11:45:14;;;;;;;;;;;20.70;99.90;;;;;;4781115;29;19929;-96
2023/07/02 11:47:50;;;;;;;;;;;21.00;99.90;;;;;;4823583;29;19943;-96
2023/07/02 11:50:19;;;;;;;;;;;21.30;99.90;;;;;;4808753;29;19924;-96
2023/07/02 11:53:08;;;;;;;;;;;21.50;99.90;;;;;;4818132;29;19984;-95
2023/07/02 11:55:37;;;;;;;;;;;21.40;99.90;;;;;;4803069;29;19982;-96
2023/07/02 11:58:21;;;;;;;;;;;21.40;99.90;;;;;;4817579;29;19928;-96
2023/07/02 12:00:56;;;;;;;;;;;21.10;99.90;;;;;;4800257;29;20028;-96
2023/07/02 12:03:57;;;;;;;;;;;20.70;99.40;;;;;;4801247;29;20117;-96
2023/07/02 12:06:46;;;;;;;;;;;20.40;99.90;;;;;;4742906;29;19933;-96
2023/07/02 12:09:38;;;;;;;;;;;20.10;99.90;;;;;;4821565;29;19924;-94
2023/07/02 12:12:18;;;;;;;;;;;20.30;99.90;;;;;;4796463;29;19929;-96
2023/07/02 12:14:46;;;;;;;;;;;20.30;99.90;;;;;;4803093;29;19931;-94
2023/07/02 12:17:18;;;;;;;;;;;20.00;99.90;;;;;;4807925;29;20014;-96
2023/07/02 12:19:59;;;;;;;;;;;20.30;99.90;;;;;;4808792;29;19928;-96
2023/07/02 12:23:03;;;;;;;;;;;20.10;99.90;;;;;;4797293;29;19928;-96
2023/07/02 12:25:35;;;;;;;;;;;20.00;99.90;;;;;;4786116;29;20015;-95
2023/07/02 12:28:35;;;;;;;;;;;20.10;99.90;;;;;;4808196;29;19932;-95
2023/07/02 12:31:36;;;;;;;;;;;19.90;99.90;;;;;;4760378;29;19925;-96
2023/07/02 12:34:05;;;;;;;;;;;19.90;99.90;;;;;;4801072;29;19931;-95
2023/07/02 12:36:57;;;;;;;;;;;19.70;99.90;;;;;;4807634;29;19920;-94
2023/07/02 12:39:26;;;;;;;;;;;19.70;99.90;;;;;;4781503;29;19928;-94
2023/07/02 12:44:29;;;;;;;;;;;19.90;99.90;;;;;;4809238;29;19928;-94
2023/07/02 12:46:59;;;;;;;;;;;19.90;99.90;;;;;;4796971;29;19962;-95
2023/07/02 12:49:57;;;;;;;;;;;20.00;99.90;;;;;;4805233;29;19928;-95
2023/07/02 12:52:32;;;;;;;;;;;20.00;99.90;;;;;;4820898;29;19924;-95
2023/07/02 12:55:08;;;;;;;;;;;20.00;99.90;;;;;;4802701;29;20015;-96
2023/07/02 12:57:48;;;;;;;;;;;19.90;99.90;;;;;;4800172;29;19925;-95
2023/07/02 13:00:28;;;;;;;;;;;19.90;99.90;;;;;;4791567;29;20399;-95
2023/07/02 13:03:03;;;;;;;;;;;19.90;99.90;;;;;;4798096;29;20421;-94
2023/07/02 13:05:32;;;;;;;;;;;19.90;99.90;;;;;;4794241;29;19950;-94
2023/07/02 13:08:05;;;;;;;;;;;19.90;99.90;;;;;;4789010;29;20356;-95
2023/07/02 13:10:50;;;;;;;;;;;19.70;99.90;;;;;;4782096;29;20278;-96
2023/07/02 13:14:00;;;;;;;;;;;19.60;99.90;;;;;;4803643;29;20041;-95
2023/07/02 13:16:29;;;;;;;;;;;19.80;99.90;;;;;;4797619;29;19928;-95
2023/07/02 13:19:43;;;;;;;;;;;19.80;99.90;;;;;;4784521;29;20388;-94
2023/07/02 13:22:14;;;;;;;;;;;19.90;99.90;;;;;;4821656;29;19935;-96
2023/07/02 13:24:55;;;;;;;;;;;19.70;99.90;;;;;;4808045;29;19979;-95
2023/07/02 13:27:37;;;;;;;;;;;19.50;99.90;;;;;;4824334;29;19929;-95
2023/07/02 13:31:02;;;;;;;;;;;19.60;99.90;;;;;;4808840;29;19949;-94
2023/07/02 13:36:13;;;;;;;;;;;19.90;99.70;;;;;;4827673;29;19928;-95
2023/07/02 13:38:44;;;;;;;;;;;20.30;99.90;;;;;;4797891;29;20274;-94
2023/07/02 13:41:16;;;;;;;;;;;20.30;99.90;;;;;;4807538;29;20454;-95
2023/07/02 13:43:47;;;;;;;;;;;20.10;99.90;;;;;;4792965;29;19925;-95
2023/07/02 13:46:47;;;;;;;;;;;19.70;99.90;;;;;;4801835;29;19924;-96
2023/07/02 13:49:13;;;;;;;;;;;19.60;99.90;;;;;;4819762;24;21121;-86
2023/07/02 13:51:38;;;;;;;;;;;19.40;99.90;;;;;;4822512;29;20277;-85
2023/07/02 13:54:04;;;;;;;;;;;19.50;99.90;;;;;;4823023;29;19928;-85
2023/07/02 13:56:30;;;;;;;;;;;19.60;99.90;;;;;;4822545;29;19924;-86
2023/07/02 13:58:56;;;;;;;;;;;19.60;99.90;;;;;;4839501;29;20000;-86
2023/07/02 14:01:22;;;;;;;;;;;19.50;99.90;;;;;;4841130;29;19932;-86
2023/07/02 14:03:47;;;;;;;;;;;19.50;99.90;;;;;;4826350;29;20377;-87
2023/07/02 14:06:13;;;;;;;;;;;19.30;99.90;;;;;;4827457;29;19928;-87
2023/07/02 14:08:39;;;;;;;;;;;19.20;99.90;;;;;;4826266;29;19985;-88
2023/07/02 14:11:04;;;;;;;;;;;19.10;99.90;;;;;;4824611;29;19925;-86
2023/07/02 14:13:30;;;;;;;;;;;19.20;99.90;;;;;;4839157;29;20034;-87
2023/07/02 14:15:56;;;;;;;;;;;19.30;99.90;;;;;;4837205;29;20369;-87
2023/07/02 14:18:21;;;;;;;;;;;19.30;99.90;;;;;;4826133;29;19978;-86
2023/07/02 14:20:47;;;;;;;;;;;19.30;99.90;;;;;;4827050;29;20380;-87
2023/07/02 14:23:12;;;;;;;;;;;19.10;99.90;;;;;;4827102;29;19932;-86
2023/07/02 14:25:38;;;;;;;;;;;19.00;99.90;;;;;;4821459;29;19932;-87
2023/07/02 14:28:04;;;;;;;;;;;18.80;99.90;;;;;;4834104;29;19925;-87
2023/07/02 14:30:29;;;;;;;;;;;18.70;99.90;;;;;;4821125;29;19928;-87
2023/07/02 14:32:55;;;;;;;;;;;18.70;99.90;;;;;;4817083;29;19928;-85
2023/07/02 14:35:25;;;;;;;;;;;18.60;99.90;;;;;;4820191;29;20412;-86
2023/07/02 14:37:50;;;;;;;;;;;18.60;99.90;;;;;;4819640;29;19991;-87
2023/07/02 14:40:16;;;;;;;;;;;18.40;99.90;;;;;;4819730;29;19947;-86
2023/07/02 14:42:42;;;;;;;;;;;18.30;99.90;;;;;;4820484;29;20310;-87
2023/07/02 14:45:09;;;;;;;;;;;18.20;99.90;;;;;;4819564;29;20340;-86
2023/07/02 14:47:35;;;;;;;;;;;18.00;99.90;;;;;;4820042;29;19936;-85
2023/07/02 14:50:00;;;;;;;;;;;18.10;99.90;;;;;;4818024;29;19928;-86